Time;durP1;ratioP1;P1;durP2;ratioP2;P2;SDS_P1;SDS_P2;PMS_P1;PMS_P2;Temp;Humidity;BMP_temperature;BMP_pressure;BME280_temperature;BME280_humidity;BME280_pressure;Samples;Min_cycle;Max_cycle;Signal;HPM_P1;HPM_P2
2023/09/19 00:00:41;;;;;;;;;;;;;;;22.77;64.02;100145.94;4913107;29;7047;-71
2023/09/19 00:03:08;;;;;;;;;;;;;;;22.77;63.94;100145.22;4914730;29;1624;-72
2023/09/19 00:05:36;;;;;;;;;;;;;;;22.76;63.86;100144.44;4916466;29;1869;-72
2023/09/19 00:08:04;;;;;;;;;;;;;;;22.77;63.84;100145.22;4909601;29;2593;-72
2023/09/19 00:10:34;;;;;;;;;;;;;;;22.76;63.84;100130.03;4909910;29;2261;-71
2023/09/19 00:13:07;;;;;;;;;;;;;;;22.77;63.82;100139.44;4913384;29;2209;-72
2023/09/19 00:15:37;;;;;;;;;;;;;;;22.75;63.55;100139.38;4915037;29;2166;-71
2023/09/19 00:18:07;;;;;;;;;;;;;;;22.76;63.74;100132.19;4910333;29;2217;-72
2023/09/19 00:20:35;;;;;;;;;;;;;;;22.76;63.65;100135.06;4908818;29;2213;-72
2023/09/19 00:23:08;;;;;;;;;;;;;;;22.76;63.55;100135.06;4898946;29;2183;-71
2023/09/19 00:25:35;;;;;;;;;;;;;;;22.75;63.86;100137.22;4914847;29;2237;-72
2023/09/19 00:28:02;;;;;;;;;;;;;;;22.76;63.72;100138.69;4910987;29;3055;-72
2023/09/19 00:30:28;;;;;;;;;;;;;;;22.76;63.51;100132.19;4912776;29;6301;-72
2023/09/19 00:32:55;;;;;;;;;;;;;;;22.76;63.63;100127.13;4912888;29;2162;-72
2023/09/19 00:35:24;;;;;;;;;;;;;;;22.76;63.44;100132.19;4910410;29;2182;-72
2023/09/19 00:37:50;;;;;;;;;;;;;;;22.76;63.39;100135.06;4912297;29;2314;-72
2023/09/19 00:40:17;;;;;;;;;;;;;;;22.75;63.69;100136.50;4912127;29;2186;-72
2023/09/19 00:42:46;;;;;;;;;;;;;;;22.75;63.31;100139.38;4914448;29;1675;-72
2023/09/19 00:45:13;;;;;;;;;;;;;;;22.75;63.35;100130.72;4911254;29;2135;-72
2023/09/19 00:47:51;;;;;;;;;;;;;;;22.75;63.34;100142.28;4912460;29;2306;-72
2023/09/19 00:50:18;;;;;;;;;;;;;;;22.75;63.68;100139.38;4915556;29;1609;-72
2023/09/19 00:52:49;;;;;;;;;;;;;;;22.74;63.24;100138.63;4915275;29;1568;-71
2023/09/19 00:55:15;;;;;;;;;;;;;;;22.75;63.48;100148.03;4899709;29;2120;-74
2023/09/19 00:57:43;;;;;;;;;;;;;;;22.73;63.35;100142.94;4892737;29;2199;-74
2023/09/19 01:00:12;;;;;;;;;;;;;;;22.73;63.56;100150.88;4898248;29;6183;-74
2023/09/19 01:02:40;;;;;;;;;;;;;;;22.73;63.46;100148.72;4896965;29;2167;-74
2023/09/19 01:05:07;;;;;;;;;;;;;;;22.73;63.55;100148.00;4897647;29;2240;-74
2023/09/19 01:07:33;;;;;;;;;;;;;;;22.73;63.42;100139.31;4896989;29;2313;-74
2023/09/19 01:10:00;;;;;;;;;;;;;;;22.73;63.52;100145.09;4907624;29;2223;-74
2023/09/19 01:12:33;;;;;;;;;;;;;;;22.73;63.19;100145.84;4902344;29;2235;-74
2023/09/19 01:15:04;;;;;;;;;;;;;;;22.73;63.18;100139.31;4916149;29;2293;-74
2023/09/19 01:17:32;;;;;;;;;;;;;;;22.72;63.21;100150.16;4900622;29;2271;-74
2023/09/19 01:20:04;;;;;;;;;;;;;;;22.72;63.07;100149.38;4908828;29;2257;-74
2023/09/19 01:22:45;;;;;;;;;;;;;;;22.72;63.45;100149.38;4907996;29;2218;-74
2023/09/19 01:25:30;;;;;;;;;;;;;;;22.72;63.40;100152.28;4912088;29;2231;-74
2023/09/19 01:28:16;;;;;;;;;;;;;;;22.72;63.23;100152.28;4907088;29;2453;-74
2023/09/19 01:30:43;;;;;;;;;;;;;;;22.72;63.48;100160.94;4910667;29;6120;-73
2023/09/19 01:33:10;;;;;;;;;;;;;;;22.72;63.21;100160.94;4914778;29;2153;-74
2023/09/19 01:35:38;;;;;;;;;;;;;;;22.71;63.44;100160.19;4899499;29;2493;-74
2023/09/19 01:38:09;;;;;;;;;;;;;;;22.71;63.46;100153.69;4916617;29;2158;-74
2023/09/19 01:40:37;;;;;;;;;;;;;;;22.70;63.38;100155.88;4914894;29;2777;-74
2023/09/19 01:43:13;;;;;;;;;;;;;;;22.69;63.44;100157.25;4911362;29;2507;-74
2023/09/19 01:45:42;;;;;;;;;;;;;;;22.69;63.47;100156.53;4910304;29;2567;-74
2023/09/19 01:48:13;;;;;;;;;;;;;;;22.71;63.15;100147.94;4913774;29;2222;-74
2023/09/19 01:50:44;;;;;;;;;;;;;;;22.69;63.49;100156.53;4914229;29;2293;-74
2023/09/19 01:53:13;;;;;;;;;;;;;;;22.69;63.10;100153.66;4915366;29;2734;-74
2023/09/19 01:55:42;;;;;;;;;;;;;;;22.70;63.45;100158.00;4895471;29;2315;-74
2023/09/19 01:58:14;;;;;;;;;;;;;;;22.70;63.44;100163.75;4899384;29;2302;-73
2023/09/19 02:00:41;;;;;;;;;;;;;;;22.70;63.31;100169.53;4911325;29;7032;-74
2023/09/19 02:03:08;;;;;;;;;;;;;;;22.69;63.42;100163.03;4912021;29;2230;-74
2023/09/19 02:05:34;;;;;;;;;;;;;;;22.70;63.24;100167.41;4917179;29;2467;-74
2023/09/19 02:08:01;;;;;;;;;;;;;;;22.69;63.43;100162.31;4915565;29;2439;-74
2023/09/19 02:10:27;;;;;;;;;;;;;;;22.68;63.43;100175.28;4911696;29;2221;-74
2023/09/19 02:12:54;;;;;;;;;;;;;;;22.68;63.19;100178.16;4910489;29;2485;-74
2023/09/19 02:15:20;;;;;;;;;;;;;;;22.68;63.32;100178.16;4913328;29;2344;-74
2023/09/19 02:17:46;;;;;;;;;;;;;;;22.69;63.22;100179.63;4901257;29;2229;-74
2023/09/19 02:20:14;;;;;;;;;;;;;;;22.68;63.25;100176.00;4912764;29;2267;-74
2023/09/19 02:22:41;;;;;;;;;;;;;;;22.68;63.15;100181.06;4911396;29;2332;-73
2023/09/19 02:25:08;;;;;;;;;;;;;;;22.66;63.28;100181.00;4916385;29;2495;-74
2023/09/19 02:27:35;;;;;;;;;;;;;;;22.67;63.07;100182.44;4899719;29;2211;-74
2023/09/19 02:30:02;;;;;;;;;;;;;;;22.66;63.18;100189.66;4912080;29;2189;-74
2023/09/19 02:32:30;;;;;;;;;;;;;;;22.67;62.92;100188.22;4899692;29;6674;-74
2023/09/19 02:34:58;;;;;;;;;;;;;;;22.65;63.04;100185.28;4913087;29;2265;-73
2023/09/19 02:37:24;;;;;;;;;;;;;;;22.66;63.18;100189.66;4911081;29;2360;-74
2023/09/19 02:39:51;;;;;;;;;;;;;;;22.65;63.00;100191.06;4911932;29;2465;-74
2023/09/19 02:42:17;;;;;;;;;;;;;;;22.65;63.07;100199.72;4914861;29;2644;-74
2023/09/19 02:44:46;;;;;;;;;;;;;;;22.65;62.94;100200.44;4912591;29;2248;-74
2023/09/19 02:47:15;;;;;;;;;;;;;;;22.66;63.00;100198.31;4911042;29;2208;-74
2023/09/19 02:49:42;;;;;;;;;;;;;;;22.65;63.19;100205.47;4914527;29;2221;-74
2023/09/19 02:52:11;;;;;;;;;;;;;;;22.64;62.93;100215.56;4916903;29;1795;-74
2023/09/19 02:54:37;;;;;;;;;;;;;;;22.62;63.23;100210.47;4916087;29;2082;-74
2023/09/19 02:57:06;;;;;;;;;;;;;;;22.63;62.96;100211.19;4908654;29;2631;-74
2023/09/19 02:59:33;;;;;;;;;;;;;;;22.65;62.86;100214.13;4912056;29;2226;-74
2023/09/19 03:02:00;;;;;;;;;;;;;;;22.65;62.84;100217.03;4911579;29;6313;-74
2023/09/19 03:04:27;;;;;;;;;;;;;;;22.63;62.82;100211.94;4909794;29;2241;-73
2023/09/19 03:06:58;;;;;;;;;;;;;;;22.64;62.84;100218.44;4914764;29;2292;-74
2023/09/19 03:09:25;;;;;;;;;;;;;;;22.64;62.71;100219.19;4891779;29;2321;-73
2023/09/19 03:11:52;;;;;;;;;;;;;;;22.62;62.96;100216.25;4910385;29;2379;-74
2023/09/19 03:14:20;;;;;;;;;;;;;;;22.62;63.07;100232.81;4894779;29;2256;-74
2023/09/19 03:16:47;;;;;;;;;;;;;;;22.61;62.77;100234.97;4906855;29;2270;-74
2023/09/19 03:19:15;;;;;;;;;;;;;;;22.61;63.05;100237.09;4912485;29;2245;-74
2023/09/19 03:21:42;;;;;;;;;;;;;;;22.61;62.81;100237.88;4877943;29;2420;-74
2023/09/19 03:24:09;;;;;;;;;;;;;;;22.60;62.80;100236.38;4908897;29;2285;-74
2023/09/19 03:26:35;;;;;;;;;;;;;;;22.62;62.63;100238.59;4904558;29;2216;-73
2023/09/19 03:29:09;;;;;;;;;;;;;;;22.58;62.89;100245.72;4904162;29;2299;-74
2023/09/19 03:31:37;;;;;;;;;;;;;;;22.58;62.59;100245.72;4914095;29;6470;-74
2023/09/19 03:34:06;;;;;;;;;;;;;;;22.57;62.33;100252.91;4892585;29;2301;-73
2023/09/19 03:36:33;;;;;;;;;;;;;;;22.58;62.70;100251.47;4915212;29;2242;-73
2023/09/19 03:38:59;;;;;;;;;;;;;;;22.59;62.36;100260.91;4906606;29;2503;-74
2023/09/19 03:41:27;;;;;;;;;;;;;;;22.58;62.32;100257.25;4915203;29;2222;-73
2023/09/19 03:43:53;;;;;;;;;;;;;;;22.54;62.54;100260.03;4907210;29;2323;-74
2023/09/19 03:46:20;;;;;;;;;;;;;;;22.56;62.45;100256.47;4909056;29;2250;-74
2023/09/19 03:48:48;;;;;;;;;;;;;;;22.53;62.53;100261.44;4915348;29;2258;-74
2023/09/19 03:51:14;;;;;;;;;;;;;;;22.52;62.43;100254.22;4906916;29;2292;-74
2023/09/19 03:53:41;;;;;;;;;;;;;;;22.54;62.33;100259.28;4907993;29;2230;-74
2023/09/19 03:56:09;;;;;;;;;;;;;;;22.53;61.99;100264.31;4913948;29;2364;-74
2023/09/19 03:58:39;;;;;;;;;;;;;;;22.53;62.11;100261.44;4878662;29;2687;-74
2023/09/19 04:01:06;;;;;;;;;;;;;;;22.53;61.87;100260.72;4914186;29;6183;-74
2023/09/19 04:03:46;;;;;;;;;;;;;;;22.53;61.77;100267.22;4913825;29;2190;-74
2023/09/19 04:06:13;;;;;;;;;;;;;;;22.53;61.69;100270.09;4914059;29;2237;-74
2023/09/19 04:08:40;;;;;;;;;;;;;;;22.51;61.85;100272.91;4915817;29;1903;-74
2023/09/19 04:11:06;;;;;;;;;;;;;;;22.51;61.63;100261.38;4899427;29;2254;-74
2023/09/19 04:13:33;;;;;;;;;;;;;;;22.51;61.56;100261.38;4913110;29;2359;-73
2023/09/19 04:15:59;;;;;;;;;;;;;;;22.51;61.76;100267.16;4914482;29;2214;-74
2023/09/19 04:18:26;;;;;;;;;;;;;;;22.49;61.79;100267.09;4912329;29;2284;-74
2023/09/19 04:20:52;;;;;;;;;;;;;;;22.50;61.59;100274.34;4898266;29;2248;-74
2023/09/19 04:23:22;;;;;;;;;;;;;;;22.51;61.58;100281.56;4915491;29;2077;-74
2023/09/19 04:25:48;;;;;;;;;;;;;;;22.51;61.36;100280.84;4910316;29;2330;-73
2023/09/19 04:28:15;;;;;;;;;;;;;;;22.48;60.99;100293.75;4911100;29;2110;-71
2023/09/19 04:30:42;;;;;;;;;;;;;;;22.27;60.71;100283.78;4912926;29;6291;-72
2023/09/19 04:33:08;;;;;;;;;;;;;;;22.38;60.54;100297.09;4911240;29;2191;-72
2023/09/19 04:35:35;;;;;;;;;;;;;;;22.49;60.32;100298.81;4912903;29;2214;-72
2023/09/19 04:38:03;;;;;;;;;;;;;;;22.53;60.06;100301.84;4911479;29;2217;-72
2023/09/19 04:40:29;;;;;;;;;;;;;;;22.57;60.21;100304.84;4915522;29;2038;-71
2023/09/19 04:42:59;;;;;;;;;;;;;;;22.58;60.17;100302.69;4912620;29;2309;-71
2023/09/19 04:45:26;;;;;;;;;;;;;;;22.53;60.42;100304.00;4912232;29;2237;-72
2023/09/19 04:47:53;;;;;;;;;;;;;;;22.35;59.23;100304.94;4913992;29;2332;-71
2023/09/19 04:50:20;;;;;;;;;;;;;;;22.26;59.41;100314.03;4917696;29;1934;-71
2023/09/19 04:52:50;;;;;;;;;;;;;;;22.27;59.62;100310.47;4906749;29;1789;-71
2023/09/19 04:55:18;;;;;;;;;;;;;;;22.37;59.50;100313.63;4918933;29;2210;-71
2023/09/19 04:57:46;;;;;;;;;;;;;;;22.45;59.07;100313.16;4919007;29;1969;-71
2023/09/19 05:00:14;;;;;;;;;;;;;;;22.49;59.21;100313.25;4917449;29;6255;-71
2023/09/19 05:02:41;;;;;;;;;;;;;;;22.51;59.06;100313.31;4918821;29;1684;-72
2023/09/19 05:05:08;;;;;;;;;;;;;;;22.51;59.54;100321.97;4918749;29;1671;-71
2023/09/19 05:07:35;;;;;;;;;;;;;;;22.53;59.45;100321.31;4918978;29;1886;-72
2023/09/19 05:10:05;;;;;;;;;;;;;;;22.54;59.80;100326.41;4914343;29;2246;-71
2023/09/19 05:12:32;;;;;;;;;;;;;;;22.54;59.98;100323.53;4915510;29;2234;-71
2023/09/19 05:15:02;;;;;;;;;;;;;;;22.55;59.93;100330.75;4917629;29;2732;-71
2023/09/19 05:17:29;;;;;;;;;;;;;;;22.55;60.38;100333.63;4915782;29;2205;-71
2023/09/19 05:19:55;;;;;;;;;;;;;;;22.63;60.18;100335.28;4916935;29;2237;-72
2023/09/19 05:22:24;;;;;;;;;;;;;;;22.61;60.12;100335.97;4916405;29;2561;-71
2023/09/19 05:24:51;;;;;;;;;;;;;;;22.61;60.17;100335.22;4916993;29;2163;-71
2023/09/19 05:27:17;;;;;;;;;;;;;;;22.62;60.16;100348.25;4917891;29;2340;-71
2023/09/19 05:29:44;;;;;;;;;;;;;;;22.61;60.19;100350.41;4916964;29;2258;-71
2023/09/19 05:32:11;;;;;;;;;;;;;;;22.63;59.72;100349.72;4916490;29;6119;-71
2023/09/19 05:34:38;;;;;;;;;;;;;;;22.61;60.00;100359.06;4916680;29;2092;-71
2023/09/19 05:37:07;;;;;;;;;;;;;;;22.59;59.79;100356.13;4917980;29;2056;-71
2023/09/19 05:39:33;;;;;;;;;;;;;;;22.63;59.41;100353.34;4916655;29;2190;-71
2023/09/19 05:42:03;;;;;;;;;;;;;;;22.70;59.01;100360.00;4916411;29;2234;-70
2023/09/19 05:44:29;;;;;;;;;;;;;;;22.64;59.13;100359.84;4918568;29;2459;-71
2023/09/19 05:46:56;;;;;;;;;;;;;;;22.63;59.35;100369.91;4915004;29;2256;-71
2023/09/19 05:49:24;;;;;;;;;;;;;;;22.63;59.10;100381.44;4917520;29;2179;-71
2023/09/19 05:51:53;;;;;;;;;;;;;;;22.72;58.21;100374.50;4916238;29;2118;-71
2023/09/19 05:54:20;;;;;;;;;;;;;;;22.29;58.40;100382.63;4915781;29;2217;-72
2023/09/19 05:56:47;;;;;;;;;;;;;;;21.94;58.04;100389.41;4914276;29;2136;-72
2023/09/19 05:59:16;;;;;;;;;;;;;;;21.75;57.73;100388.81;4916715;29;2175;-73
2023/09/19 06:01:42;;;;;;;;;;;;;;;21.71;57.64;100397.31;4916227;29;6540;-73
2023/09/19 06:04:09;;;;;;;;;;;;;;;21.81;58.03;100399.09;4914538;29;2338;-68
2023/09/19 06:06:38;;;;;;;;;;;;;;;22.10;57.21;100404.34;4917875;29;1961;-73
2023/09/19 06:09:05;;;;;;;;;;;;;;;22.17;57.68;100414.69;4917395;29;1696;-72
2023/09/19 06:11:34;;;;;;;;;;;;;;;22.26;57.35;100407.03;4916162;29;1815;-72
2023/09/19 06:14:02;;;;;;;;;;;;;;;22.30;57.53;100407.16;4916272;29;2589;-73
2023/09/19 06:16:29;;;;;;;;;;;;;;;22.26;57.74;100412.06;4915162;29;2130;-72
2023/09/19 06:19:01;;;;;;;;;;;;;;;22.16;57.58;100416.09;4912755;29;2245;-71
2023/09/19 06:21:28;;;;;;;;;;;;;;;22.26;57.39;100409.19;4916715;29;2261;-73
2023/09/19 06:23:54;;;;;;;;;;;;;;;22.31;57.26;100407.91;4915336;29;2202;-72
2023/09/19 06:26:20;;;;;;;;;;;;;;;22.32;57.65;100424.53;4916232;29;2238;-73
2023/09/19 06:28:47;;;;;;;;;;;;;;;22.35;57.43;100413.81;4916058;29;2185;-73
2023/09/19 06:31:13;;;;;;;;;;;;;;;22.36;57.12;100421.78;4914132;29;6398;-72
2023/09/19 06:33:40;;;;;;;;;;;;;;;22.38;57.26;100427.63;4915582;29;2189;-73
2023/09/19 06:36:07;;;;;;;;;;;;;;;22.40;57.16;100426.94;4913389;29;2187;-73
2023/09/19 06:38:35;;;;;;;;;;;;;;;22.38;57.37;100418.97;4916229;29;2190;-74
2023/09/19 06:41:04;;;;;;;;;;;;;;;22.33;57.60;100425.28;4916405;29;2237;-74
2023/09/19 06:43:31;;;;;;;;;;;;;;;22.32;57.62;100426.69;4916632;29;2565;-74
2023/09/19 06:45:57;;;;;;;;;;;;;;;22.34;57.85;100429.66;4916677;29;2252;-73
2023/09/19 06:48:29;;;;;;;;;;;;;;;22.37;57.73;100422.53;4914832;29;2450;-74
2023/09/19 06:50:55;;;;;;;;;;;;;;;22.36;57.49;100433.34;4914924;29;2472;-74
2023/09/19 06:53:23;;;;;;;;;;;;;;;22.35;57.50;100439.78;4915073;29;2134;-73
2023/09/19 06:55:50;;;;;;;;;;;;;;;22.35;57.37;100448.41;4899449;29;2188;-74
2023/09/19 06:58:16;;;;;;;;;;;;;;;22.32;56.78;100446.88;4914853;29;2143;-69
2023/09/19 07:00:44;;;;;;;;;;;;;;;22.33;56.82;100451.25;4912990;29;6111;-67
2023/09/19 07:03:13;;;;;;;;;;;;;;;22.33;56.65;100459.91;4915817;29;2189;-68
2023/09/19 07:05:40;;;;;;;;;;;;;;;22.45;56.41;100462.41;4900148;29;2259;-69
2023/09/19 07:08:07;;;;;;;;;;;;;;;22.45;56.80;100480.50;4912551;29;2251;-68
2023/09/19 07:10:33;;;;;;;;;;;;;;;22.46;56.96;100479.06;4916631;29;2341;-68
2023/09/19 07:13:00;;;;;;;;;;;;;;;22.47;56.81;100477.66;4915760;29;1663;-68
2023/09/19 07:15:26;;;;;;;;;;;;;;;22.47;57.13;100482.69;4914920;29;1803;-68
2023/09/19 07:17:56;;;;;;;;;;;;;;;22.47;57.02;100483.44;4916312;29;1795;-68
2023/09/19 07:20:25;;;;;;;;;;;;;;;22.47;57.08;100477.66;4916560;29;1915;-68
2023/09/19 07:22:52;;;;;;;;;;;;;;;22.47;57.20;100486.31;4916192;29;1612;-68
2023/09/19 07:25:18;;;;;;;;;;;;;;;22.46;57.47;100487.72;4916003;29;1609;-68
2023/09/19 07:27:45;;;;;;;;;;;;;;;22.48;57.39;100499.34;4915811;29;1815;-68
2023/09/19 07:30:11;;;;;;;;;;;;;;;22.48;57.41;100496.44;4915679;29;6374;-68
2023/09/19 07:32:38;;;;;;;;;;;;;;;22.48;57.43;100499.34;4915782;29;1606;-68
2023/09/19 07:35:05;;;;;;;;;;;;;;;22.50;57.69;100492.91;4916110;29;1593;-68
2023/09/19 07:37:33;;;;;;;;;;;;;;;22.49;57.85;100497.91;4917422;29;2197;-68
2023/09/19 07:40:00;;;;;;;;;;;;;;;22.50;57.71;100487.13;4900721;29;1976;-68
2023/09/19 07:42:27;;;;;;;;;;;;;;;22.50;58.03;100501.56;4915919;29;2012;-68
2023/09/19 07:44:53;;;;;;;;;;;;;;;22.49;57.91;100497.91;4916752;29;1713;-68
2023/09/19 07:47:21;;;;;;;;;;;;;;;22.51;57.88;100512.41;4916057;29;1608;-69
2023/09/19 07:49:47;;;;;;;;;;;;;;;22.51;58.11;100521.06;4916079;29;1672;-68
2023/09/19 07:52:15;;;;;;;;;;;;;;;22.52;58.06;100519.66;4916854;29;1625;-68
2023/09/19 07:54:43;;;;;;;;;;;;;;;22.52;58.10;100536.25;4915122;29;2056;-68
2023/09/19 07:57:11;;;;;;;;;;;;;;;22.51;58.37;100532.59;4916433;29;1675;-68
2023/09/19 07:59:38;;;;;;;;;;;;;;;22.53;58.28;100531.94;4915612;29;1911;-68
2023/09/19 08:02:04;;;;;;;;;;;;;;;22.52;58.42;100527.59;4915126;29;6079;-68
2023/09/19 08:04:33;;;;;;;;;;;;;;;22.52;58.36;100536.97;4915252;29;1756;-68
2023/09/19 08:07:00;;;;;;;;;;;;;;;22.53;58.51;100543.47;4915508;29;1608;-68
2023/09/19 08:09:27;;;;;;;;;;;;;;;22.52;58.32;100531.19;4916503;29;1737;-67
2023/09/19 08:11:54;;;;;;;;;;;;;;;22.52;58.41;100534.09;4916017;29;1829;-68
2023/09/19 08:14:20;;;;;;;;;;;;;;;22.53;58.43;100532.66;4915523;29;1652;-68
2023/09/19 08:16:47;;;;;;;;;;;;;;;22.53;58.46;100532.66;4914963;29;1692;-68
2023/09/19 08:19:14;;;;;;;;;;;;;;;22.52;58.39;100531.19;4916266;29;1974;-68
2023/09/19 08:21:41;;;;;;;;;;;;;;;22.53;58.58;100538.44;4920061;29;1632;-68
2023/09/19 08:24:09;;;;;;;;;;;;;;;22.54;58.64;100537.03;4919011;29;1823;-68
2023/09/19 08:26:37;;;;;;;;;;;;;;;22.53;58.41;100526.91;4920315;29;1605;-68
2023/09/19 08:29:07;;;;;;;;;;;;;;;22.54;58.71;100534.16;4919932;29;1862;-68
2023/09/19 08:31:33;;;;;;;;;;;;;;;22.53;58.57;100526.91;4919258;29;6676;-68
2023/09/19 08:34:00;;;;;;;;;;;;;;;22.53;58.53;100532.66;4919981;29;1600;-68
2023/09/19 08:36:26;;;;;;;;;;;;;;;22.53;58.78;100535.56;4920222;29;1804;-68
2023/09/19 08:38:53;;;;;;;;;;;;;;;22.54;58.72;100533.41;4920056;29;2131;-68
2023/09/19 08:41:19;;;;;;;;;;;;;;;22.54;58.85;100544.94;4918834;29;1657;-68
2023/09/19 08:43:46;;;;;;;;;;;;;;;22.54;58.82;100544.94;4918566;29;1831;-68
2023/09/19 08:46:16;;;;;;;;;;;;;;;22.54;58.83;100542.81;4918710;29;1740;-68
2023/09/19 08:48:49;;;;;;;;;;;;;;;22.55;58.71;100552.19;4919908;29;1616;-69
2023/09/19 08:51:26;;;;;;;;;;;;;;;22.54;58.67;100551.47;4904373;29;1835;-68
2023/09/19 08:53:59;;;;;;;;;;;;;;;22.55;58.86;100552.19;4919347;29;1706;-68
2023/09/19 08:56:26;;;;;;;;;;;;;;;22.55;58.56;100564.47;4918975;29;1680;-68
2023/09/19 08:58:53;;;;;;;;;;;;;;;22.54;58.83;100560.13;4920101;29;1911;-68
2023/09/19 09:01:24;;;;;;;;;;;;;;;22.54;58.98;100554.34;4919007;29;6080;-68
2023/09/19 09:03:52;;;;;;;;;;;;;;;22.55;58.68;100552.94;4918805;29;1627;-68
2023/09/19 09:06:20;;;;;;;;;;;;;;;22.55;58.87;100558.72;4918508;29;1652;-68
2023/09/19 09:08:46;;;;;;;;;;;;;;;22.57;58.62;100567.44;4919563;29;1660;-68
2023/09/19 09:11:13;;;;;;;;;;;;;;;22.58;58.79;100562.38;4919271;29;1792;-68
2023/09/19 09:13:41;;;;;;;;;;;;;;;22.58;58.82;100559.50;4904290;29;1637;-68
2023/09/19 09:16:09;;;;;;;;;;;;;;;22.58;58.97;100568.16;4918973;29;1834;-68
2023/09/19 09:18:36;;;;;;;;;;;;;;;22.59;58.62;100570.38;4919664;29;1632;-68
2023/09/19 09:21:04;;;;;;;;;;;;;;;22.59;58.87;100576.16;4918526;29;1951;-68
2023/09/19 09:23:32;;;;;;;;;;;;;;;22.61;58.98;100571.84;4918727;29;1780;-68
2023/09/19 09:26:02;;;;;;;;;;;;;;;22.61;58.70;100571.84;4920645;29;1731;-68
2023/09/19 09:28:30;;;;;;;;;;;;;;;22.59;58.55;100570.38;4918868;29;1771;-68
2023/09/19 09:31:02;;;;;;;;;;;;;;;22.59;58.93;100573.28;4918325;29;6162;-68
2023/09/19 09:33:29;;;;;;;;;;;;;;;22.61;58.56;100569.72;4919113;29;1641;-68
2023/09/19 09:36:02;;;;;;;;;;;;;;;22.62;58.69;100567.56;4917920;29;2045;-68
2023/09/19 09:38:32;;;;;;;;;;;;;;;22.61;58.89;100566.06;4918729;29;2235;-68
2023/09/19 09:41:06;;;;;;;;;;;;;;;22.61;58.77;100578.38;4917897;29;1974;-68
2023/09/19 09:43:36;;;;;;;;;;;;;;;22.62;58.71;100573.34;4918492;29;1855;-68
2023/09/19 09:46:54;;;;;;;;;;;;;;;22.62;58.69;100576.22;4917185;29;1830;-68
2023/09/19 09:49:15;;;;;;;;;;;;;;;22.63;58.72;100580.56;4918072;29;1585;-68
2023/09/19 09:51:42;;;;;;;;;;;;;;;22.63;58.98;100580.56;4917461;29;1596;-68
2023/09/19 09:54:09;;;;;;;;;;;;;;;22.62;58.86;100574.06;4918901;29;1671;-68
2023/09/19 09:56:38;;;;;;;;;;;;;;;22.63;58.73;100581.34;4918239;29;1615;-68
2023/09/19 09:59:04;;;;;;;;;;;;;;;22.64;59.16;100579.19;4902745;29;1972;-68
2023/09/19 10:01:46;;;;;;;;;;;;;;;22.63;58.92;100586.34;4917823;29;6258;-68
2023/09/19 10:04:15;;;;;;;;;;;;;;;22.64;59.09;100588.56;4918483;29;1536;-68
2023/09/19 10:06:47;;;;;;;;;;;;;;;22.62;58.87;100585.63;4911974;29;2869;-69
2023/09/19 10:09:17;;;;;;;;;;;;;;;22.67;58.93;100587.22;4919157;29;2111;-68
2023/09/19 10:11:44;;;;;;;;;;;;;;;22.68;58.96;100576.44;4917547;29;2252;-68
2023/09/19 10:14:12;;;;;;;;;;;;;;;22.67;58.89;100566.28;4918363;29;2080;-69
2023/09/19 10:16:40;;;;;;;;;;;;;;;22.67;59.16;100569.91;4917409;29;2194;-68
2023/09/19 10:19:08;;;;;;;;;;;;;;;22.66;59.11;100568.44;4916895;29;2293;-68
2023/09/19 10:21:36;;;;;;;;;;;;;;;22.68;59.10;100582.22;4918952;29;1716;-68
2023/09/19 10:24:07;;;;;;;;;;;;;;;22.67;59.14;100587.22;4916172;29;1627;-68
2023/09/19 10:26:36;;;;;;;;;;;;;;;22.64;59.32;100584.97;4916338;29;2058;-69
2023/09/19 10:29:03;;;;;;;;;;;;;;;22.69;59.31;100577.91;4917065;29;2484;-68
2023/09/19 10:31:30;;;;;;;;;;;;;;;22.70;58.97;100580.13;4916075;29;6216;-69
2023/09/19 10:33:57;;;;;;;;;;;;;;;22.74;58.95;100579.50;4916811;29;2197;-68
2023/09/19 10:36:25;;;;;;;;;;;;;;;22.69;59.35;100583.66;4915380;29;2258;-72
2023/09/19 10:38:54;;;;;;;;;;;;;;;22.65;59.09;100592.19;4917185;29;2127;-71
2023/09/19 10:41:21;;;;;;;;;;;;;;;22.31;52.51;100581.72;4903296;29;1939;-68
2023/09/19 10:43:48;;;;;;;;;;;;;;;22.41;51.99;100583.47;4913505;29;2683;-68
2023/09/19 10:46:14;;;;;;;;;;;;;;;22.48;51.75;100591.66;4917370;29;1838;-68
2023/09/19 10:48:43;;;;;;;;;;;;;;;22.50;51.64;100588.13;4915969;29;1601;-68
2023/09/19 10:51:11;;;;;;;;;;;;;;;22.54;52.47;100591.09;4914585;29;2158;-68
2023/09/19 10:53:53;;;;;;;;;;;;;;;22.56;51.95;100591.94;4914128;29;2444;-68
2023/09/19 10:56:24;;;;;;;;;;;;;;;22.59;51.76;100584.09;4917846;29;2118;-68
2023/09/19 10:58:51;;;;;;;;;;;;;;;22.62;52.11;100587.78;4914270;29;2222;-68
2023/09/19 11:01:18;;;;;;;;;;;;;;;22.62;52.58;100584.88;4915194;29;6247;-68
2023/09/19 11:03:44;;;;;;;;;;;;;;;22.61;53.14;100589.16;4915859;29;2142;-68
2023/09/19 11:06:16;;;;;;;;;;;;;;;22.61;52.99;100584.16;4914641;29;2199;-68
2023/09/19 11:11:52;;;;;;;;;;;;;;;22.63;52.75;100583.47;4917535;29;1874;-68
2023/09/19 11:14:23;;;;;;;;;;;;;;;22.64;52.73;100591.47;4915024;29;2691;-68
2023/09/19 11:17:05;;;;;;;;;;;;;;;22.65;53.01;100589.31;4915682;29;2205;-68
2023/09/19 11:19:53;;;;;;;;;;;;;;;22.64;52.97;100577.03;4916177;29;1968;-68
2023/09/19 11:22:22;;;;;;;;;;;;;;;22.65;53.56;100580.66;4917278;29;2202;-68
2023/09/19 11:24:51;;;;;;;;;;;;;;;22.66;53.85;100596.56;4916523;29;1546;-68
2023/09/19 11:27:18;;;;;;;;;;;;;;;22.67;53.47;100590.09;4915395;29;2001;-68
2023/09/19 11:29:44;;;;;;;;;;;;;;;22.67;53.52;100598.03;4915490;29;1870;-68
2023/09/19 11:32:11;;;;;;;;;;;;;;;22.68;53.74;100600.25;4915395;29;6266;-68
2023/09/19 11:34:48;;;;;;;;;;;;;;;22.68;53.67;100588.72;4916991;29;2110;-68
2023/09/19 11:37:15;;;;;;;;;;;;;;;22.69;54.02;100595.22;4916265;29;2184;-68
2023/09/19 11:40:00;;;;;;;;;;;;;;;22.69;54.24;100595.94;4916319;29;1915;-68
2023/09/19 11:42:45;;;;;;;;;;;;;;;22.70;53.95;100596.69;4915567;29;1798;-68
2023/09/19 11:45:49;;;;;;;;;;;;;;;22.71;53.63;100598.16;4917015;29;1704;-68
2023/09/19 11:48:18;;;;;;;;;;;;;;;22.71;53.59;100598.91;4916718;29;1855;-68
2023/09/19 11:50:44;;;;;;;;;;;;;;;22.73;54.27;100595.34;4915636;29;2059;-68
2023/09/19 11:53:16;;;;;;;;;;;;;;;22.72;54.06;100593.84;4914442;29;2163;-68
2023/09/19 11:55:43;;;;;;;;;;;;;;;22.71;54.80;100598.91;4913921;29;2234;-68
2023/09/19 11:58:09;;;;;;;;;;;;;;;22.75;54.53;100599.03;4913815;29;2190;-69
2023/09/19 12:00:36;;;;;;;;;;;;;;;22.74;54.67;100599.69;4915013;29;6640;-69
2023/09/19 12:03:06;;;;;;;;;;;;;;;22.73;53.81;100601.13;4915436;29;2123;-70
2023/09/19 12:05:33;;;;;;;;;;;;;;;22.61;53.07;100606.47;4915881;29;2178;-70
2023/09/19 12:08:00;;;;;;;;;;;;;;;22.57;51.58;100602.06;4902318;29;1662;-70
2023/09/19 12:10:26;;;;;;;;;;;;;;;22.50;46.51;100602.53;4914247;29;1886;-70
2023/09/19 12:12:53;;;;;;;;;;;;;;;22.50;45.74;100602.53;4912058;29;1993;-70
2023/09/19 12:15:24;;;;;;;;;;;;;;;22.54;44.30;100602.66;4915284;29;2251;-70
2023/09/19 12:17:51;;;;;;;;;;;;;;;22.50;44.64;100602.53;4915075;29;1791;-71
2023/09/19 12:20:19;;;;;;;;;;;;;;;22.52;43.96;100602.59;4912797;29;2257;-70
2023/09/19 12:22:46;;;;;;;;;;;;;;;22.55;43.83;100598.38;4913769;29;2185;-69
2023/09/19 12:25:13;;;;;;;;;;;;;;;22.58;43.98;100600.63;4913143;29;2064;-69
2023/09/19 12:27:43;;;;;;;;;;;;;;;22.57;44.19;100599.19;4911581;29;2130;-69
2023/09/19 12:30:13;;;;;;;;;;;;;;;22.61;44.74;100595.69;4911612;29;6547;-69
2023/09/19 12:32:53;;;;;;;;;;;;;;;22.63;46.80;100587.09;4901902;29;2192;-70
2023/09/19 12:35:30;;;;;;;;;;;;;;;22.72;46.19;100588.09;4910758;29;2261;-68
2023/09/19 12:37:56;;;;;;;;;;;;;;;22.68;47.54;100585.09;4913528;29;2138;-69
2023/09/19 12:40:27;;;;;;;;;;;;;;;22.73;47.78;100578.03;4915663;29;1919;-69
2023/09/19 12:42:58;;;;;;;;;;;;;;;22.71;48.35;100578.69;4915812;29;1820;-69
2023/09/19 12:45:24;;;;;;;;;;;;;;;22.72;48.15;100582.31;4914528;29;1592;-69
2023/09/19 12:48:10;;;;;;;;;;;;;;;22.71;48.50;100577.97;4913832;29;1616;-69
2023/09/19 12:50:38;;;;;;;;;;;;;;;22.71;48.80;100580.84;4915948;29;1811;-69
2023/09/19 12:53:04;;;;;;;;;;;;;;;22.74;49.28;100591.03;4915345;29;1803;-69
2023/09/19 12:55:32;;;;;;;;;;;;;;;22.74;49.26;100599.69;4914991;29;1593;-69
2023/09/19 12:57:59;;;;;;;;;;;;;;;22.72;49.16;100605.41;4915641;29;1803;-69